Time;durP1;ratioP1;P1;durP2;ratioP2;P2;SDS_P1;SDS_P2;PMS_P1;PMS_P2;Temp;Humidity;BMP_temperature;BMP_pressure;BME280_temperature;BME280_humidity;BME280_pressure;Samples;Min_cycle;Max_cycle;Signal;HPM_P1;HPM_P2
2022/10/27 00:01:16;;;;;;;0.10;0.10;;;;;;;10.48;100.00;97318.91;4947462;28;20161;-77
2022/10/27 00:04:03;;;;;;;0.15;0.10;;;;;;;10.42;100.00;97315.25;4949844;28;20042;-76
2022/10/27 00:06:49;;;;;;;0.10;0.10;;;;;;;10.35;100.00;97319.06;4949291;28;20054;-76
2022/10/27 00:09:34;;;;;;;0.10;0.10;;;;;;;10.11;100.00;97328.78;4952509;28;20105;-76
2022/10/27 00:12:20;;;;;;;0.20;0.10;;;;;;;10.14;100.00;97336.38;4953647;28;20494;-76
2022/10/27 00:15:07;;;;;;;0.10;0.10;;;;;;;10.04;100.00;97327.03;4954673;28;20047;-78
2022/10/27 00:17:53;;;;;;;0.10;0.10;;;;;;;9.89;100.00;97331.94;4953001;28;20062;-76
2022/10/27 00:20:39;;;;;;;0.10;0.10;;;;;;;9.88;100.00;97327.63;4952298;28;20080;-76
2022/10/27 00:23:25;;;;;;;0.10;0.10;;;;;;;9.96;100.00;97330.03;4952076;28;20047;-76
2022/10/27 00:26:14;;;;;;;0.10;0.10;;;;;;;9.93;100.00;97322.41;4940605;28;20055;-75
2022/10/27 00:28:59;;;;;;;0.10;0.10;;;;;;;9.94;100.00;97321.38;4951006;28;20410;-75
2022/10/27 00:31:45;;;;;;;0.10;0.10;;;;;;;9.89;100.00;97325.78;4940907;28;20886;-77
2022/10/27 00:34:31;;;;;;;0.10;0.10;;;;;;;10.00;100.00;97323.16;4950169;28;20657;-77
2022/10/27 00:37:17;;;;;;;0.10;0.10;;;;;;;10.12;100.00;97322.44;4948779;28;20074;-77
2022/10/27 00:40:03;;;;;;;0.10;0.10;;;;;;;10.15;100.00;97324.66;4951155;28;20134;-76
2022/10/27 00:42:49;;;;;;;0.08;0.08;;;;;;;10.16;100.00;97327.09;4953364;28;20133;-75
2022/10/27 00:45:35;;;;;;;0.10;0.10;;;;;;;10.22;100.00;97325.38;4951973;28;20047;-77
2022/10/27 00:48:23;;;;;;;0.10;0.10;;;;;;;10.19;100.00;97321.28;4950913;28;20514;-77
2022/10/27 00:51:12;;;;;;;0.10;0.10;;;;;;;10.21;100.00;97324.56;4955378;28;20043;-77
2022/10/27 00:53:58;;;;;;;0.10;0.10;;;;;;;10.17;100.00;97325.22;4953009;28;20046;-78
2022/10/27 00:56:46;;;;;;;0.10;0.10;;;;;;;10.05;100.00;97322.50;4949824;28;20364;-76
2022/10/27 00:59:33;;;;;;;0.15;0.10;;;;;;;9.96;100.00;97327.34;4954578;28;20039;-77
2022/10/27 01:02:19;;;;;;;0.10;0.10;;;;;;;9.94;100.00;97317.88;4953363;28;20526;-76
2022/10/27 01:05:17;;;;;;;0.10;0.10;;;;;;;9.81;100.00;97326.91;4952744;28;20277;-75
2022/10/27 01:08:05;;;;;;;0.10;0.10;;;;;;;9.79;100.00;97326.28;4952662;28;20308;-76
2022/10/27 01:10:52;;;;;;;0.10;0.10;;;;;;;9.73;100.00;97322.66;4950737;28;20038;-77
2022/10/27 01:13:38;;;;;;;0.10;0.10;;;;;;;9.70;100.00;97331.09;4950711;28;20990;-77
2022/10/27 01:16:46;;;;;;;0.10;0.10;;;;;;;9.69;100.00;97318.78;4953402;28;20037;-77
2022/10/27 01:19:37;;;;;;;0.10;0.10;;;;;;;9.59;100.00;97318.47;4945678;28;20523;-77
2022/10/27 01:22:35;;;;;;;0.10;0.10;;;;;;;9.53;100.00;97322.03;4951893;28;20503;-76
2022/10/27 01:25:57;;;;;;;0.10;0.10;;;;;;;9.42;100.00;97322.78;4952360;28;20072;-75
2022/10/27 01:29:21;;;;;;;0.10;0.10;;;;;;;9.37;100.00;97330.63;4951135;28;20066;-77
2022/10/27 01:32:10;;;;;;;0.10;0.10;;;;;;;9.25;100.00;97330.50;4949552;28;20074;-76
2022/10/27 01:35:07;;;;;;;0.10;0.10;;;;;;;9.23;100.00;97329.09;4952466;28;20170;-77
2022/10/27 01:38:28;;;;;;;0.10;0.10;;;;;;;9.26;100.00;97333.97;4953668;28;20610;-76
2022/10/27 01:41:37;;;;;;;0.20;0.20;;;;;;;9.23;100.00;97337.09;4951389;28;20031;-75
2022/10/27 01:44:32;;;;;;;0.10;0.10;;;;;;;9.27;100.00;97331.13;4951085;28;20517;-77
2022/10/27 01:47:20;;;;;;;0.10;0.10;;;;;;;9.27;100.00;97333.78;4951437;28;20806;-76
2022/10/27 01:50:07;;;;;;;0.10;0.10;;;;;;;9.29;100.00;97331.72;4950159;28;20035;-76
2022/10/27 01:52:53;;;;;;;0.10;0.10;;;;;;;9.31;100.00;97339.50;4951441;28;20099;-76
2022/10/27 01:56:03;;;;;;;0.10;0.10;;;;;;;9.35;100.00;97332.69;4951658;28;20047;-77
2022/10/27 01:59:27;;;;;;;0.10;0.10;;;;;;;9.32;100.00;97338.47;4948683;28;20030;-76
2022/10/27 02:02:35;;;;;;;0.10;0.10;;;;;;;9.33;100.00;97324.06;4951751;28;20314;-76
2022/10/27 02:05:32;;;;;;;0.20;0.20;;;;;;;9.27;100.00;97324.97;4949672;28;20039;-76
2022/10/27 02:08:37;;;;;;;0.10;0.10;;;;;;;9.25;100.00;97325.16;4950924;28;20827;-76
2022/10/27 02:11:24;;;;;;;0.10;0.10;;;;;;;9.26;100.00;97324.16;4936825;28;20539;-76
2022/10/27 02:14:11;;;;;;;0.10;0.10;;;;;;;9.31;100.00;97323.47;4949478;28;20333;-76
2022/10/27 02:16:58;;;;;;;0.10;0.10;;;;;;;9.30;100.00;97321.84;4949879;28;20121;-77
2022/10/27 02:19:47;;;;;;;0.10;0.10;;;;;;;9.32;100.00;97325.09;4950679;28;20047;-77
2022/10/27 02:22:35;;;;;;;0.10;0.10;;;;;;;9.25;100.00;97319.00;4949574;28;20229;-76
2022/10/27 02:25:27;;;;;;;0.10;0.10;;;;;;;9.30;100.00;97325.31;4932729;28;20577;-76
2022/10/27 02:28:17;;;;;;;0.15;0.15;;;;;;;9.38;100.00;97319.69;4950604;28;20101;-77
2022/10/27 02:31:05;;;;;;;0.10;0.10;;;;;;;9.46;100.00;97313.25;4951314;28;20328;-76
2022/10/27 02:33:52;;;;;;;0.10;0.10;;;;;;;9.46;100.00;97322.09;4953460;28;20568;-77
2022/10/27 02:36:40;;;;;;;0.13;0.13;;;;;;;9.45;100.00;97330.34;4948609;28;20419;-76
2022/10/27 02:39:26;;;;;;;0.10;0.10;;;;;;;9.38;100.00;97314.34;4949753;28;20058;-76
2022/10/27 02:42:12;;;;;;;0.10;0.10;;;;;;;9.37;100.00;97323.41;4949579;28;20057;-77
2022/10/27 02:44:57;;;;;;;0.28;0.20;;;;;;;9.32;100.00;97327.78;4951681;28;20054;-76
2022/10/27 02:47:43;;;;;;;0.20;0.20;;;;;;;9.28;100.00;97321.25;4949585;28;20065;-75
2022/10/27 02:50:29;;;;;;;0.20;0.13;;;;;;;9.23;100.00;97319.22;4934631;28;20579;-76
2022/10/27 02:53:15;;;;;;;0.45;0.15;;;;;;;9.21;100.00;97324.78;4951586;28;20542;-76
2022/10/27 02:56:00;;;;;;;0.10;0.10;;;;;;;9.20;100.00;97325.81;4953331;28;20051;-75
2022/10/27 02:58:46;;;;;;;0.10;0.10;;;;;;;9.14;100.00;97305.34;4948165;28;20045;-77
2022/10/27 03:01:32;;;;;;;0.10;0.10;;;;;;;9.15;100.00;97314.97;4951303;28;20454;-76
2022/10/27 03:04:18;;;;;;;0.10;0.10;;;;;;;9.17;100.00;97314.75;4919051;28;20046;-76
2022/10/27 03:07:04;;;;;;;0.10;0.10;;;;;;;9.24;100.00;97309.34;4951363;28;20047;-76
2022/10/27 03:09:50;;;;;;;0.10;0.10;;;;;;;9.17;100.00;97312.91;4951154;28;20050;-75
2022/10/27 03:12:45;;;;;;;0.10;0.10;;;;;;;9.11;100.00;97305.78;4950147;28;20074;-76
2022/10/27 03:15:30;;;;;;;0.10;0.10;;;;;;;9.12;100.00;97319.94;4950054;28;20393;-75
2022/10/27 03:18:16;;;;;;;0.10;0.10;;;;;;;9.14;100.00;97321.34;4951687;28;20043;-75
2022/10/27 03:21:02;;;;;;;0.10;0.10;;;;;;;9.25;100.00;97319.00;4949588;28;20151;-76
2022/10/27 03:23:49;;;;;;;0.10;0.10;;;;;;;9.53;100.00;97324.72;4951461;28;20054;-76
2022/10/27 03:26:35;;;;;;;0.10;0.10;;;;;;;9.67;100.00;97328.88;4938981;28;20496;-75
2022/10/27 03:29:26;;;;;;;;;;;;;;;9.78;100.00;97325.47;4950559;28;21405;-76
2022/10/27 03:32:12;;;;;;;0.13;0.13;;;;;;;9.81;100.00;97320.72;4932933;28;19922;-75
2022/10/27 03:34:57;;;;;;;0.10;0.10;;;;;;;9.74;100.00;97329.63;4952153;28;20380;-76
2022/10/27 03:37:43;;;;;;;0.10;0.10;;;;;;;9.66;100.00;97332.59;4952109;28;20261;-76
2022/10/27 03:40:31;;;;;;;0.10;0.10;;;;;;;9.58;100.00;97335.56;4949214;28;20066;-74
2022/10/27 03:43:17;;;;;;;0.10;0.10;;;;;;;9.55;100.00;97335.97;4950329;28;20046;-75
2022/10/27 03:46:02;;;;;;;0.10;0.10;;;;;;;9.46;100.00;97329.28;4930419;28;20432;-74
2022/10/27 03:48:48;;;;;;;0.15;0.10;;;;;;;9.44;100.00;97331.38;4938911;28;20523;-75
2022/10/27 03:51:34;;;;;;;0.10;0.10;;;;;;;9.42;100.00;97331.59;4956757;28;20057;-76
2022/10/27 03:54:20;;;;;;;0.10;0.10;;;;;;;9.39;100.00;97329.34;4953062;28;20066;-75
2022/10/27 03:57:06;;;;;;;0.10;0.10;;;;;;;9.38;100.00;97329.56;4952941;28;20387;-75
2022/10/27 03:59:52;;;;;;;0.10;0.10;;;;;;;9.39;100.00;97333.88;4953532;28;20190;-76
2022/10/27 04:02:38;;;;;;;0.20;0.20;;;;;;;9.36;100.00;97343.16;4955809;28;20101;-74
2022/10/27 04:05:24;;;;;;;0.10;0.10;;;;;;;9.31;100.00;97339.50;4957228;28;20607;-74
2022/10/27 04:08:10;;;;;;;0.10;0.10;;;;;;;9.24;100.00;97330.72;4952649;28;20047;-74
2022/10/27 04:10:56;;;;;;;0.10;0.10;;;;;;;9.20;100.00;97327.69;4956726;28;20054;-74
2022/10/27 04:13:41;;;;;;;0.10;0.10;;;;;;;9.13;100.00;97335.75;4954836;28;20371;-76
2022/10/27 04:16:30;;;;;;;0.10;0.10;;;;;;;9.15;100.00;97343.53;4955309;28;20117;-76
2022/10/27 04:19:19;;;;;;;0.10;0.10;;;;;;;9.16;100.00;97334.47;4953864;28;20450;-73
2022/10/27 04:22:05;;;;;;;0.10;0.10;;;;;;;9.26;100.00;97328.63;4954561;28;20406;-75
2022/10/27 04:24:51;;;;;;;0.20;0.20;;;;;;;9.29;100.00;97334.38;4955700;28;20062;-76
2022/10/27 04:27:36;;;;;;;0.10;0.10;;;;;;;9.28;100.00;97334.59;4954543;28;20066;-74
2022/10/27 04:30:22;;;;;;;0.25;0.20;;;;;;;9.23;100.00;97321.91;4953878;28;20049;-75
2022/10/27 04:33:08;;;;;;;0.10;0.10;;;;;;;9.26;100.00;97325.97;4936574;28;20464;-75
2022/10/27 04:35:57;;;;;;;0.10;0.10;;;;;;;9.27;100.00;97330.31;4940066;28;20138;-75
2022/10/27 04:38:42;;;;;;;0.10;0.10;;;;;;;9.28;100.00;97327.41;4954114;28;20101;-75
2022/10/27 04:41:30;;;;;;;0.10;0.10;;;;;;;9.27;100.00;97322.28;4938778;28;20142;-75
2022/10/27 04:44:16;;;;;;;0.20;0.20;;;;;;;9.21;100.00;97311.44;4953328;28;20173;-75
2022/10/27 04:47:02;;;;;;;0.20;0.20;;;;;;;9.26;100.00;97324.16;4956575;28;20034;-75
2022/10/27 04:49:47;;;;;;;0.10;0.10;;;;;;;9.32;100.00;97323.25;4953074;28;20051;-76
2022/10/27 04:52:33;;;;;;;0.10;0.10;;;;;;;9.31;100.00;97320.78;4951972;28;20047;-75
2022/10/27 04:55:19;;;;;;;0.20;0.20;;;;;;;9.29;100.00;97314.88;4955104;28;20134;-75
2022/10/27 04:58:05;;;;;;;0.10;0.10;;;;;;;9.29;100.00;97317.53;4954148;28;20050;-75
2022/10/27 05:00:51;;;;;;;0.10;0.10;;;;;;;9.29;100.00;97315.69;4939176;28;20325;-75
2022/10/27 05:03:37;;;;;;;0.10;0.10;;;;;;;9.31;100.00;97307.44;4954631;28;20062;-76
2022/10/27 05:06:23;;;;;;;0.10;0.10;;;;;;;9.31;100.00;97308.25;4954308;28;20420;-75
2022/10/27 05:09:09;;;;;;;0.10;0.10;;;;;;;9.31;100.00;97304.78;4953050;28;20282;-75
2022/10/27 05:11:54;;;;;;;0.10;0.10;;;;;;;9.37;100.00;97306.56;4954274;28;20198;-77
2022/10/27 05:14:40;;;;;;;0.20;0.20;;;;;;;9.38;100.00;97319.69;4954685;28;20039;-76
2022/10/27 05:17:26;;;;;;;0.10;0.10;;;;;;;9.37;100.00;97322.59;4937947;28;21114;-76
2022/10/27 05:20:13;;;;;;;0.10;0.10;;;;;;;9.35;100.00;97311.31;4953555;28;20554;-76
2022/10/27 05:22:59;;;;;;;0.20;0.20;;;;;;;9.36;100.00;97310.28;4952474;28;20050;-75
2022/10/27 05:25:50;;;;;;;0.10;0.10;;;;;;;9.41;100.00;97319.25;4952459;28;20047;-76
2022/10/27 05:28:36;;;;;;;0.10;0.10;;;;;;;9.43;100.00;97317.19;4951733;28;20058;-76
2022/10/27 05:31:22;;;;;;;0.10;0.10;;;;;;;9.47;100.00;97322.91;4951797;28;20058;-75
2022/10/27 05:34:08;;;;;;;0.10;0.10;;;;;;;9.42;100.00;97304.88;4951419;28;20459;-75
2022/10/27 05:36:54;;;;;;;0.13;0.10;;;;;;;9.43;100.00;97313.72;4953622;28;20039;-76
2022/10/27 05:39:39;;;;;;;0.10;0.10;;;;;;;9.52;100.00;97319.59;4955524;28;20101;-75
2022/10/27 05:42:26;;;;;;;0.10;0.10;;;;;;;9.52;100.00;97322.25;4952357;28;20483;-75
2022/10/27 05:45:12;;;;;;;0.10;0.10;;;;;;;9.49;100.00;97313.66;4953601;28;20511;-77
2022/10/27 05:48:00;;;;;;;0.10;0.10;;;;;;;9.52;100.00;97320.41;4953358;28;20694;-76
2022/10/27 05:50:51;;;;;;;0.10;0.10;;;;;;;9.52;100.00;97316.91;4954993;28;20292;-76
2022/10/27 05:53:37;;;;;;;0.10;0.10;;;;;;;9.53;100.00;97315.88;4950446;28;20054;-76
2022/10/27 05:56:23;;;;;;;0.10;0.10;;;;;;;9.56;100.00;97323.44;4956432;28;20483;-76
2022/10/27 05:59:10;;;;;;;0.15;0.13;;;;;;;9.56;100.00;97321.56;4949755;28;20495;-76
2022/10/27 06:01:56;;;;;;;0.10;0.10;;;;;;;9.58;100.00;97324.88;4950607;28;20046;-75
2022/10/27 06:04:41;;;;;;;0.10;0.10;;;;;;;9.56;100.00;97328.78;4951979;28;20494;-75
2022/10/27 06:07:27;;;;;;;0.10;0.10;;;;;;;9.57;100.00;97338.44;4953564;28;20426;-76
2022/10/27 06:10:13;;;;;;;0.10;0.10;;;;;;;9.59;100.00;97336.38;4948902;28;20054;-76
2022/10/27 06:13:03;;;;;;;0.10;0.10;;;;;;;9.60;100.00;97338.00;4952250;28;20353;-76
2022/10/27 06:15:50;;;;;;;0.10;0.10;;;;;;;9.59;100.00;97326.50;4952197;28;20070;-76
2022/10/27 06:18:35;;;;;;;0.10;0.10;;;;;;;9.63;100.00;97329.53;4948894;28;20383;-75
2022/10/27 06:21:22;;;;;;;0.10;0.10;;;;;;;9.67;100.00;97328.06;4951478;28;20074;-76
2022/10/27 06:24:08;;;;;;;0.10;0.10;;;;;;;9.74;100.00;97321.63;4948787;28;20035;-75
2022/10/27 06:26:54;;;;;;;0.10;0.10;;;;;;;9.84;100.00;97326.44;4953672;28;20109;-76
2022/10/27 06:29:40;;;;;;;0.15;0.13;;;;;;;9.87;100.00;97334.00;4954667;28;20050;-76
2022/10/27 06:32:25;;;;;;;0.10;0.10;;;;;;;9.91;100.00;97334.38;4953145;28;20554;-76
2022/10/27 06:35:11;;;;;;;0.10;0.10;;;;;;;9.92;100.00;97336.03;4950822;28;20533;-74
2022/10/27 06:37:57;;;;;;;0.10;0.10;;;;;;;9.91;100.00;97335.19;4951458;28;20371;-75
2022/10/27 06:40:43;;;;;;;0.10;0.10;;;;;;;9.92;100.00;97336.03;4953507;28;20066;-76
2022/10/27 06:43:29;;;;;;;0.10;0.10;;;;;;;9.98;100.00;97327.13;4953400;28;20093;-76
2022/10/27 06:46:15;;;;;;;0.10;0.10;;;;;;;10.05;100.00;97335.88;4955314;28;20051;-75
2022/10/27 06:49:01;;;;;;;0.10;0.10;;;;;;;10.09;100.00;97325.53;4952906;28;20047;-75
2022/10/27 06:51:46;;;;;;;0.10;0.10;;;;;;;10.15;100.00;97330.81;4951984;28;20047;-76
2022/10/27 06:54:32;;;;;;;0.10;0.10;;;;;;;10.22;100.00;97334.25;4949794;28;20217;-76
2022/10/27 06:57:18;;;;;;;0.10;0.10;;;;;;;10.28;100.00;97337.91;4950799;28;20472;-75
2022/10/27 07:00:05;;;;;;;0.20;0.20;;;;;;;10.33;100.00;97327.31;4952937;28;20128;-75
2022/10/27 07:02:51;;;;;;;0.10;0.10;;;;;;;10.39;100.00;97320.25;4951547;28;20055;-75
2022/10/27 07:05:37;;;;;;;0.10;0.10;;;;;;;10.48;100.00;97329.59;4951362;28;20640;-76
2022/10/27 07:08:23;;;;;;;0.10;0.10;;;;;;;10.56;100.00;97343.47;4952915;28;20109;-76
2022/10/27 07:11:09;;;;;;;0.10;0.10;;;;;;;10.66;100.00;97348.31;4935665;28;20151;-76
2022/10/27 07:13:55;;;;;;;0.10;0.10;;;;;;;10.75;100.00;97341.59;4952104;28;20057;-76
2022/10/27 07:16:41;;;;;;;0.10;0.10;;;;;;;10.84;100.00;97350.91;4952911;28;20586;-75
2022/10/27 07:19:27;;;;;;;0.10;0.10;;;;;;;10.96;100.00;97352.81;4955209;28;20439;-76
2022/10/27 07:22:13;;;;;;;0.10;0.10;;;;;;;11.01;100.00;97345.72;4953759;28;20551;-76
2022/10/27 07:24:58;;;;;;;0.10;0.10;;;;;;;11.10;100.00;97348.88;4955060;28;20487;-76
2022/10/27 07:27:55;;;;;;;0.17;0.13;;;;;;;11.22;100.00;97346.25;4956189;28;20078;-77
2022/10/27 07:30:44;;;;;;;0.10;0.10;;;;;;;11.34;100.00;97349.72;4958449;28;20326;-76
2022/10/27 07:33:30;;;;;;;0.15;0.10;;;;;;;11.44;100.00;97353.50;4952779;28;20051;-75
2022/10/27 07:36:16;;;;;;;0.17;0.10;;;;;;;11.50;100.00;97346.34;4955628;28;20578;-76
2022/10/27 07:39:02;;;;;;;0.10;0.10;;;;;;;11.64;100.00;97353.13;4954429;28;20117;-76
2022/10/27 07:41:51;;;;;;;0.10;0.10;;;;;;;11.68;100.00;97348.94;4955905;28;20043;-76
2022/10/27 07:44:37;;;;;;;0.10;0.10;;;;;;;11.75;100.00;97348.00;4953254;28;20484;-76
2022/10/27 07:47:23;;;;;;;0.10;0.10;;;;;;;11.83;100.00;97348.50;4957750;28;20278;-76
2022/10/27 07:50:09;;;;;;;0.10;0.10;;;;;;;11.86;100.00;97342.66;4956060;28;20054;-76
2022/10/27 07:52:56;;;;;;;0.10;0.10;;;;;;;11.93;100.00;97346.03;4955950;28;20043;-77
2022/10/27 07:55:42;;;;;;;0.10;0.10;;;;;;;11.96;100.00;97336.69;4956423;28;20049;-77
2022/10/27 07:58:28;;;;;;;0.13;0.13;;;;;;;11.99;100.00;97337.06;4955831;28;20046;-77
2022/10/27 08:01:14;;;;;;;0.20;0.20;;;;;;;12.14;100.00;97338.41;4962043;28;20139;-76
2022/10/27 08:04:00;;;;;;;0.10;0.10;;;;;;;12.25;100.00;97343.75;4958401;28;20097;-77
2022/10/27 08:06:46;;;;;;;0.10;0.10;;;;;;;12.36;100.00;97325.97;4956847;28;20050;-77
2022/10/27 08:09:31;;;;;;;0.10;0.10;;;;;;;12.55;100.00;97329.31;4960153;28;20047;-77
2022/10/27 08:12:18;;;;;;;0.17;0.17;;;;;;;12.66;100.00;97327.63;4958854;28;20046;-77
2022/10/27 08:15:04;;;;;;;0.10;0.10;;;;;;;12.74;100.00;97322.66;4951064;28;20067;-77
2022/10/27 08:17:52;;;;;;;0.10;0.10;;;;;;;12.80;100.00;97332.47;4956374;28;20058;-77
2022/10/27 08:20:46;;;;;;;0.08;0.08;;;;;;;12.85;100.00;97326.38;4959489;28;20141;-77
2022/10/27 08:23:31;;;;;;;0.20;0.20;;;;;;;12.87;100.00;97326.94;4957924;28;20074;-76
2022/10/27 08:26:18;;;;;;;0.10;0.10;;;;;;;12.96;100.00;97328.16;4958355;28;20047;-77
2022/10/27 08:29:03;;;;;;;0.10;0.10;;;;;;;13.08;100.00;97334.31;4956772;28;20045;-77
2022/10/27 08:31:49;;;;;;;0.20;0.20;;;;;;;13.27;100.00;97331.41;4945045;28;20412;-77
2022/10/27 08:34:35;;;;;;;0.10;0.10;;;;;;;13.38;100.00;97333.19;4941846;28;20184;-77
2022/10/27 08:37:21;;;;;;;0.17;0.10;;;;;;;13.52;100.00;97321.03;4959504;28;20060;-77
2022/10/27 08:40:09;;;;;;;0.20;0.13;;;;;;;13.62;100.00;97318.50;4956792;28;20129;-77
2022/10/27 08:43:16;;;;;;;0.10;0.10;;;;;;;13.73;100.00;97313.28;4956924;28;20065;-77
2022/10/27 08:46:09;;;;;;;0.10;0.10;;;;;;;13.86;100.00;97310.25;4960258;28;20035;-76
2022/10/27 08:49:01;;;;;;;0.10;0.10;;;;;;;13.96;100.00;97313.06;4958140;28;20105;-77
2022/10/27 08:51:48;;;;;;;0.20;0.20;;;;;;;14.05;100.00;97308.88;4939754;28;20114;-75
2022/10/27 08:54:35;;;;;;;0.13;0.13;;;;;;;14.16;100.00;97313.31;4953454;28;20046;-76
2022/10/27 08:57:26;;;;;;;0.10;0.10;;;;;;;14.21;100.00;97313.38;4953369;28;20039;-76
2022/10/27 09:00:12;;;;;;;0.10;0.10;;;;;;;14.35;100.00;97318.38;4954539;28;20090;-76
2022/10/27 09:03:25;;;;;;;0.20;0.20;;;;;;;14.43;100.00;97312.56;4954259;28;20141;-76
2022/10/27 09:06:20;;;;;;;0.10;0.10;;;;;;;14.51;100.00;97317.53;4932538;28;20133;-75
2022/10/27 09:09:43;;;;;;;0.10;0.10;;;;;;;14.56;100.00;97333.75;4954893;28;20490;-76
2022/10/27 09:12:41;;;;;;;0.13;0.13;;;;;;;14.68;100.00;97326.31;4952628;28;20081;-76
2022/10/27 09:15:38;;;;;;;0.30;0.13;;;;;;;14.80;100.00;97323.50;4954536;28;20454;-76
2022/10/27 09:18:36;;;;;;;0.10;0.10;;;;;;;14.92;100.00;97326.81;4954793;28;20066;-76
2022/10/27 09:21:26;;;;;;;0.20;0.20;;;;;;;15.15;100.00;97322.19;4954299;28;20463;-77
2022/10/27 09:24:16;;;;;;;0.17;0.17;;;;;;;15.27;100.00;97320.94;4952407;28;20050;-76
2022/10/27 09:27:03;;;;;;;0.20;0.20;;;;;;;15.53;100.00;97318.44;4953617;28;20167;-76
2022/10/27 09:29:51;;;;;;;0.20;0.20;;;;;;;15.88;100.00;97310.63;4954734;28;20067;-76
2022/10/27 09:32:40;;;;;;;0.20;0.20;;;;;;;16.67;100.00;97306.06;4955581;28;20083;-76
2022/10/27 09:35:30;;;;;;;0.10;0.10;;;;;;;17.25;100.00;97295.88;4953368;28;20237;-76
2022/10/27 09:38:20;;;;;;;0.20;0.20;;;;;;;18.57;100.00;97303.69;4950980;28;20478;-76
2022/10/27 09:41:07;;;;;;;0.20;0.20;;;;;;;19.51;100.00;97311.72;4956962;28;20130;-77
2022/10/27 09:43:54;;;;;;;0.20;0.20;;;;;;;20.07;100.00;97294.88;4957590;28;20101;-76
2022/10/27 09:46:40;;;;;;;0.30;0.30;;;;;;;20.57;100.00;97301.66;4958250;28;20042;-76
2022/10/27 09:49:33;;;;;;;0.30;0.30;;;;;;;21.62;100.00;97285.91;4955942;28;21079;-77
2022/10/27 09:52:27;;;;;;;0.20;0.20;;;;;;;21.39;100.00;97295.81;4956117;28;20324;-77
2022/10/27 09:55:12;;;;;;;0.20;0.20;;;;;;;21.64;100.00;97296.53;4952768;28;20038;-78
2022/10/27 09:58:02;;;;;;;0.20;0.20;;;;;;;21.50;100.00;97290.22;4956404;28;20063;-77
2022/10/27 10:00:59;;;;;;;0.20;0.20;;;;;;;21.19;100.00;97292.63;4957364;28;20047;-78
2022/10/27 10:03:54;;;;;;;0.30;0.30;;;;;;;21.80;100.00;97283.44;4958006;28;20056;-78
2022/10/27 10:06:40;;;;;;;0.20;0.20;;;;;;;21.64;100.00;97286.44;4958987;28;20046;-77
2022/10/27 10:09:29;;;;;;;0.20;0.20;;;;;;;22.48;95.70;97278.00;4954665;28;20046;-78
2022/10/27 10:12:23;;;;;;;0.20;0.20;;;;;;;22.60;96.15;97279.41;4958856;28;20565;-77
2022/10/27 10:15:09;;;;;;;0.20;0.20;;;;;;;22.46;93.68;97277.50;4959792;28;20098;-78
2022/10/27 10:18:00;;;;;;;0.25;0.20;;;;;;;22.61;95.06;97270.91;4950169;28;20047;-78
2022/10/27 10:20:54;;;;;;;0.20;0.20;;;;;;;22.92;92.00;97276.50;4958643;28;20097;-78
2022/10/27 10:23:46;;;;;;;0.10;0.10;;;;;;;22.30;93.63;97276.19;4956718;28;20047;-78
2022/10/27 10:26:31;;;;;;;0.15;0.15;;;;;;;21.93;97.04;97269.00;4956472;28;20042;-78
2022/10/27 10:29:27;;;;;;;0.20;0.20;;;;;;;22.79;93.02;97264.47;4958524;28;20598;-78
2022/10/27 10:32:17;;;;;;;0.20;0.20;;;;;;;21.84;96.51;97266.16;4955874;28;20597;-78
2022/10/27 10:35:39;;;;;;;0.20;0.20;;;;;;;22.57;94.38;97263.63;4600693;28;10000607;-77
2022/10/27 10:38:38;;;;;;;0.10;0.10;;;;;;;23.25;88.39;97257.16;4957011;28;20097;-77
2022/10/27 10:41:25;;;;;;;0.20;0.20;;;;;;;24.26;84.60;97269.25;4956495;28;20043;-78
2022/10/27 10:44:13;;;;;;;0.10;0.10;;;;;;;24.08;82.99;97262.94;4959044;28;20415;-78
2022/10/27 10:46:59;;;;;;;0.20;0.20;;;;;;;25.05;80.05;97254.63;4958214;28;20121;-78
2022/10/27 10:49:51;;;;;;;0.20;0.20;;;;;;;24.54;78.46;97272.59;4959891;28;20085;-78
2022/10/27 10:52:38;;;;;;;0.15;0.15;;;;;;;24.24;80.53;97255.13;4955349;28;20045;-78
2022/10/27 10:55:32;;;;;;;0.20;0.20;;;;;;;24.33;80.35;97261.44;4943859;28;20051;-78
2022/10/27 10:58:20;;;;;;;0.20;0.20;;;;;;;25.18;75.62;97250.91;4953139;28;20049;-79
2022/10/27 11:01:07;;;;;;;0.13;0.13;;;;;;;24.67;78.13;97250.56;4947918;28;20046;-79
2022/10/27 11:03:55;;;;;;;0.10;0.10;;;;;;;24.51;80.65;97240.38;4958782;28;20411;-78
2022/10/27 11:07:02;;;;;;;0.20;0.20;;;;;;;25.48;73.33;97238.13;4954968;28;20474;-79
2022/10/27 11:10:01;;;;;;;0.10;0.10;;;;;;;25.31;73.80;97238.19;4955598;28;20062;-78
2022/10/27 11:12:49;;;;;;;0.10;0.10;;;;;;;25.68;72.71;97231.97;4955670;28;20411;-78
2022/10/27 11:15:41;;;;;;;0.10;0.10;;;;;;;25.98;71.92;97232.03;4959489;28;20113;-79
2022/10/27 11:18:46;;;;;;;0.10;0.10;;;;;;;25.54;72.28;97226.69;4959769;28;20550;-78
2022/10/27 11:21:57;;;;;;;0.20;0.20;;;;;;;26.73;65.74;97224.81;4956626;28;20469;-79
2022/10/27 11:24:57;;;;;;;0.20;0.20;;;;;;;27.05;67.14;97230.72;4955080;28;20191;-78
2022/10/27 11:28:00;;;;;;;0.10;0.10;;;;;;;26.86;59.81;97223.75;4956796;28;20130;-78
2022/10/27 11:31:04;;;;;;;0.10;0.10;;;;;;;26.45;64.07;97231.97;4956885;28;20292;-78
2022/10/27 11:34:32;;;;;;;0.13;0.13;;;;;;;26.87;62.55;97222.63;4953247;28;20053;-78
2022/10/27 11:37:30;;;;;;;0.20;0.20;;;;;;;26.90;59.35;97218.38;4945999;28;20049;-77
2022/10/27 11:40:25;;;;;;;0.10;0.10;;;;;;;26.84;65.23;97209.56;4952826;28;20051;-77
2022/10/27 11:43:32;;;;;;;0.10;0.10;;;;;;;28.43;55.21;97204.44;4956380;28;20234;-78
2022/10/27 11:46:47;;;;;;;0.10;0.10;;;;;;;28.53;52.84;97209.44;4956723;28;20042;-78
2022/10/27 11:49:50;;;;;;;0.10;0.10;;;;;;;29.25;51.78;97204.06;4947633;28;20845;-79
2022/10/27 11:52:36;;;;;;;0.10;0.10;;;;;;;28.49;54.22;97203.03;4957604;28;20490;-78
2022/10/27 11:55:26;;;;;;;0.10;0.10;;;;;;;29.69;49.37;97204.88;4953702;28;20051;-78
2022/10/27 11:58:31;;;;;;;;;;;;;;;28.72;50.24;97213.56;4954708;28;20539;-78
2022/10/27 12:01:35;;;;;;;0.13;0.10;;;;;;;29.89;47.63;97208.53;4956286;28;19941;-77
2022/10/27 12:04:44;;;;;;;0.10;0.10;;;;;;;29.69;49.19;97204.88;4958430;28;20621;-77
2022/10/27 12:07:32;;;;;;;0.10;0.10;;;;;;;30.04;48.02;97195.06;4958629;28;20086;-77
2022/10/27 12:10:34;;;;;;;0.10;0.10;;;;;;;29.92;48.90;97201.50;4961038;28;20045;-78
2022/10/27 12:13:37;;;;;;;0.00;0.00;;;;;;;28.42;50.41;97213.84;4962409;28;20043;-77
2022/10/27 12:16:41;;;;;;;0.10;0.10;;;;;;;26.81;60.20;97210.22;4960604;28;20046;-77
2022/10/27 12:19:30;;;;;;;0.08;0.08;;;;;;;27.35;60.11;97193.75;4959310;28;20542;-78
2022/10/27 12:22:35;;;;;;;0.10;0.10;;;;;;;26.72;61.55;97197.72;4960369;28;20623;-78
2022/10/27 12:25:33;;;;;;;0.08;0.08;;;;;;;25.99;68.59;97208.94;4960342;28;20045;-78
2022/10/27 12:28:21;;;;;;;0.10;0.10;;;;;;;25.32;77.15;97201.44;4955698;28;20049;-78
2022/10/27 12:31:13;;;;;;;0.10;0.10;;;;;;;27.04;64.75;97204.41;4957014;28;20105;-78
2022/10/27 12:34:03;;;;;;;0.10;0.10;;;;;;;28.29;57.04;97210.28;4953397;28;20609;-77
2022/10/27 12:37:04;;;;;;;0.10;0.10;;;;;;;27.65;58.78;97199.09;4958319;28;20053;-77
2022/10/27 12:40:03;;;;;;;0.10;0.10;;;;;;;27.50;60.79;97195.06;4958857;28;20070;-78
2022/10/27 12:43:20;;;;;;;0.10;0.10;;;;;;;26.79;64.42;97193.31;4957594;28;20042;-78
2022/10/27 12:46:33;;;;;;;0.10;0.10;;;;;;;27.39;61.00;97175.47;4947277;28;20053;-79
2022/10/27 12:49:41;;;;;;;0.10;0.10;;;;;;;28.82;54.79;97182.75;4960064;28;20067;-76
2022/10/27 12:52:33;;;;;;;0.10;0.10;;;;;;;29.36;54.03;97176.81;4956535;28;20105;-76
2022/10/27 12:55:50;;;;;;;0.10;0.10;;;;;;;28.39;56.24;97187.00;4954760;28;20047;-76
2022/10/27 12:59:17;;;;;;;0.10;0.10;;;;;;;28.40;56.27;97171.28;4954477;28;20043;-77
2022/10/27 13:02:10;;;;;;;0.15;0.15;;;;;;;28.64;52.86;97175.91;4958373;28;20054;-76
2022/10/27 13:05:14;;;;;;;0.10;0.10;;;;;;;27.21;60.35;97168.53;4955846;28;20301;-78
2022/10/27 13:08:33;;;;;;;0.10;0.10;;;;;;;26.28;65.00;97162.31;4960198;28;20109;-78
2022/10/27 13:11:40;;;;;;;0.10;0.10;;;;;;;26.09;65.19;97154.56;4958974;28;20053;-77
2022/10/27 13:15:04;;;;;;;0.10;0.10;;;;;;;25.75;71.61;97152.78;4960633;28;21813;-77
2022/10/27 13:18:05;;;;;;;0.10;0.10;;;;;;;27.67;62.87;97159.16;4955121;28;20090;-77
2022/10/27 13:21:15;;;;;;;0.10;0.10;;;;;;;28.16;60.90;97150.88;4955901;28;20042;-76
2022/10/27 13:24:06;;;;;;;0.00;0.00;;;;;;;27.13;61.95;97147.47;4954046;28;20105;-77